Time;durP1;ratioP1;P1;durP2;ratioP2;P2;SDS_P1;SDS_P2;PMS_P1;PMS_P2;Temp;Humidity;BMP_temperature;BMP_pressure;BME280_temperature;BME280_humidity;BME280_pressure;Samples;Min_cycle;Max_cycle;Signal;HPM_P1;HPM_P2
2023/03/18 00:01:47;;;;;;;22.23;20.83;;;;;;;;;;5056495;28;20447;-84
2023/03/18 00:04:15;;;;;;;22.33;20.73;;;;;;;;;;5056833;28;20442;-84
2023/03/18 00:06:43;;;;;;;22.03;20.30;;;;;;;;;;5056563;28;20482;-85
2023/03/18 00:09:12;;;;;;;21.40;20.07;;;;;;;;;;5056707;28;20531;-85
2023/03/18 00:11:39;;;;;;;23.00;21.30;;;;;;;;;;5056616;28;20435;-85
2023/03/18 00:14:07;;;;;;;22.03;20.63;;;;;;;;;;5055806;28;20458;-83
2023/03/18 00:16:34;;;;;;;21.20;19.87;;;;;;;;;;5056089;28;20792;-85
2023/03/18 00:19:03;;;;;;;21.40;20.20;;;;;;;;;;5056977;28;20477;-85
2023/03/18 00:21:31;;;;;;;22.50;21.10;;;;;;;;;;5057042;28;20489;-85
2023/03/18 00:23:59;;;;;;;21.47;20.37;;;;;;;;;;5056957;28;20485;-85
2023/03/18 00:26:26;;;;;;;22.73;21.30;;;;;;;;;;5057247;28;20455;-85
2023/03/18 00:28:55;;;;;;;21.67;20.47;;;;;;;;;;5056365;28;20532;-84
2023/03/18 00:31:22;;;;;;;23.20;21.70;;;;;;;;;;5056458;28;20486;-84
2023/03/18 00:33:49;;;;;;;23.00;21.30;;;;;;;;;;5056216;28;20425;-84
2023/03/18 00:36:17;;;;;;;21.97;20.70;;;;;;;;;;5055972;28;20439;-85
2023/03/18 00:38:49;;;;;;;22.50;21.10;;;;;;;;;;5056101;28;20503;-85
2023/03/18 00:41:16;;;;;;;23.30;21.70;;;;;;;;;;5056026;28;20526;-85
2023/03/18 00:43:51;;;;;;;22.47;21.17;;;;;;;;;;5056120;28;20463;-85
2023/03/18 00:46:19;;;;;;;21.60;20.30;;;;;;;;;;5055486;28;20929;-85
2023/03/18 00:48:46;;;;;;;23.13;21.80;;;;;;;;;;5055688;28;20479;-85
2023/03/18 00:51:15;;;;;;;24.17;22.47;;;;;;;;;;5055706;28;20463;-85
2023/03/18 00:53:43;;;;;;;23.17;21.60;;;;;;;;;;5056287;28;20429;-85
2023/03/18 00:56:12;;;;;;;23.97;22.57;;;;;;;;;;5055779;28;20542;-85
2023/03/18 00:58:40;;;;;;;23.57;22.10;;;;;;;;;;5054199;28;20827;-85
2023/03/18 01:01:08;;;;;;;23.30;21.93;;;;;;;;;;5055767;28;20810;-84
2023/03/18 01:03:36;;;;;;;22.50;21.10;;;;;;;;;;5055285;28;21032;-84
2023/03/18 01:06:03;;;;;;;22.17;20.77;;;;;;;;;;5055349;28;20451;-84
2023/03/18 01:08:30;;;;;;;22.73;21.43;;;;;;;;;;5055689;28;20466;-85
2023/03/18 01:10:57;;;;;;;23.27;21.70;;;;;;;;;;5055837;28;20450;-85
2023/03/18 01:13:26;;;;;;;22.20;21.00;;;;;;;;;;5054830;28;20956;-84
2023/03/18 01:15:53;;;;;;;24.20;22.50;;;;;;;;;;5055201;28;20429;-85
2023/03/18 01:18:20;;;;;;;22.70;21.07;;;;;;;;;;5056100;28;20445;-85
2023/03/18 01:20:47;;;;;;;25.37;23.87;;;;;;;;;;5055877;28;20478;-85
2023/03/18 01:23:14;;;;;;;24.50;22.90;;;;;;;;;;5055784;28;20450;-85
2023/03/18 01:25:42;;;;;;;23.80;22.27;;;;;;;;;;5055780;28;20475;-85
2023/03/18 01:28:09;;;;;;;24.43;22.83;;;;;;;;;;5055323;28;20465;-84
2023/03/18 01:30:37;;;;;;;24.10;22.50;;;;;;;;;;5055638;28;20443;-85
2023/03/18 01:33:06;;;;;;;26.03;23.93;;;;;;;;;;5055887;28;20902;-85
2023/03/18 01:35:34;;;;;;;24.30;22.60;;;;;;;;;;5055127;28;20451;-85
2023/03/18 01:38:01;;;;;;;24.67;22.87;;;;;;;;;;5055487;28;20474;-85
2023/03/18 01:40:29;;;;;;;24.00;22.60;;;;;;;;;;5055032;28;20502;-84
2023/03/18 01:42:57;;;;;;;24.87;23.20;;;;;;;;;;5055091;28;20512;-84
2023/03/18 01:45:27;;;;;;;24.00;22.50;;;;;;;;;;5055306;28;20508;-86
2023/03/18 01:47:56;;;;;;;24.27;22.77;;;;;;;;;;5055845;28;20471;-82
2023/03/18 01:50:25;;;;;;;24.93;23.23;;;;;;;;;;5055858;28;20504;-82
2023/03/18 01:52:53;;;;;;;23.93;22.10;;;;;;;;;;5055692;28;20421;-85
2023/03/18 01:55:21;;;;;;;24.90;23.23;;;;;;;;;;5055540;28;20478;-85
2023/03/18 01:57:49;;;;;;;26.20;24.60;;;;;;;;;;5054465;28;20525;-85
2023/03/18 02:00:18;;;;;;;23.63;21.93;;;;;;;;;;5054711;28;20463;-85
2023/03/18 02:02:46;;;;;;;23.60;21.97;;;;;;;;;;5054969;28;20454;-85
2023/03/18 02:05:16;;;;;;;24.07;22.40;;;;;;;;;;5055267;28;20443;-85
2023/03/18 02:07:44;;;;;;;24.60;22.80;;;;;;;;;;5054754;28;20470;-84
2023/03/18 02:10:13;;;;;;;24.73;23.03;;;;;;;;;;5055173;28;20447;-85
2023/03/18 02:12:42;;;;;;;24.30;22.80;;;;;;;;;;5055739;28;20520;-83
2023/03/18 02:15:11;;;;;;;26.87;24.90;;;;;;;;;;5056162;28;20448;-83
2023/03/18 02:17:40;;;;;;;25.70;23.77;;;;;;;;;;5054916;28;20926;-83
2023/03/18 02:20:15;;;;;;;25.43;23.87;;;;;;;;;;5055886;28;20479;-83
2023/03/18 02:22:46;;;;;;;24.70;23.13;;;;;;;;;;5055464;28;20474;-83
2023/03/18 02:25:18;;;;;;;23.23;21.87;;;;;;;;;;5055527;28;20879;-83
2023/03/18 02:27:49;;;;;;;25.80;23.80;;;;;;;;;;5055466;28;20449;-82
2023/03/18 02:30:18;;;;;;;25.83;24.17;;;;;;;;;;5056293;28;20412;-83
2023/03/18 02:32:46;;;;;;;24.87;23.13;;;;;;;;;;5055525;28;20968;-83
2023/03/18 02:35:13;;;;;;;24.70;23.30;;;;;;;;;;5055756;28;20446;-83
2023/03/18 02:37:40;;;;;;;25.77;24.03;;;;;;;;;;5054742;28;20442;-85
2023/03/18 02:40:15;;;;;;;25.40;23.30;;;;;;;;;;5054804;28;20470;-83
2023/03/18 02:42:43;;;;;;;25.83;23.83;;;;;;;;;;5055493;28;20872;-83
2023/03/18 02:45:14;;;;;;;25.10;23.70;;;;;;;;;;5055143;28;20938;-82
2023/03/18 02:47:43;;;;;;;26.73;24.53;;;;;;;;;;5055477;28;20482;-83
2023/03/18 02:50:10;;;;;;;24.83;23.33;;;;;;;;;;5055108;28;21005;-82
2023/03/18 02:52:37;;;;;;;26.47;24.70;;;;;;;;;;5055915;28;20421;-83
2023/03/18 02:55:05;;;;;;;25.00;23.27;;;;;;;;;;5056069;28;20417;-83
2023/03/18 02:57:32;;;;;;;26.60;24.40;;;;;;;;;;5055356;28;20457;-83
2023/03/18 03:00:00;;;;;;;25.60;23.83;;;;;;;;;;5068132;28;20450;-82
2023/03/18 03:02:28;;;;;;;27.03;24.80;;;;;;;;;;5072244;28;20476;-82
2023/03/18 03:04:55;;;;;;;25.23;23.47;;;;;;;;;;5069612;28;20562;-83
2023/03/18 03:07:26;;;;;;;26.30;24.37;;;;;;;;;;5056096;28;20451;-84
2023/03/18 03:09:53;;;;;;;26.20;24.27;;;;;;;;;;5057211;28;20436;-83
2023/03/18 03:12:21;;;;;;;25.60;23.70;;;;;;;;;;5058181;28;20990;-83
2023/03/18 03:14:48;;;;;;;26.30;24.57;;;;;;;;;;5060465;28;20432;-83
2023/03/18 03:17:16;;;;;;;29.37;27.03;;;;;;;;;;5059707;28;20778;-83
2023/03/18 03:19:44;;;;;;;26.77;24.87;;;;;;;;;;5059824;28;20444;-84
2023/03/18 03:22:11;;;;;;;27.67;25.90;;;;;;;;;;5059360;28;20468;-83
2023/03/18 03:24:38;;;;;;;27.67;25.33;;;;;;;;;;5059848;28;20452;-83
2023/03/18 03:27:05;;;;;;;27.10;25.20;;;;;;;;;;5059636;28;20417;-83
2023/03/18 03:29:32;;;;;;;29.50;27.10;;;;;;;;;;5060020;28;20520;-83
2023/03/18 03:32:00;;;;;;;28.57;26.40;;;;;;;;;;5059814;28;20426;-83
2023/03/18 03:34:27;;;;;;;27.40;25.53;;;;;;;;;;5067046;28;20455;-83
2023/03/18 03:36:56;;;;;;;28.37;26.57;;;;;;;;;;5079143;28;20481;-83
2023/03/18 03:39:23;;;;;;;28.20;26.30;;;;;;;;;;5081015;28;20457;-83
2023/03/18 03:41:51;;;;;;;26.60;24.67;;;;;;;;;;5080910;28;20519;-82
2023/03/18 03:44:19;;;;;;;26.73;24.47;;;;;;;;;;5078501;28;20476;-83
2023/03/18 03:46:46;;;;;;;27.83;25.80;;;;;;;;;;5080678;28;20431;-81
2023/03/18 03:49:13;;;;;;;28.20;26.00;;;;;;;;;;5080499;28;20474;-83
2023/03/18 03:51:40;;;;;;;26.97;25.27;;;;;;;;;;5081179;28;20781;-83
2023/03/18 03:54:09;;;;;;;27.70;25.60;;;;;;;;;;5081063;28;20850;-83
2023/03/18 03:56:36;;;;;;;28.83;26.83;;;;;;;;;;5079958;28;20425;-83
2023/03/18 03:59:03;;;;;;;26.73;24.90;;;;;;;;;;5079968;28;20911;-84
2023/03/18 04:01:31;;;;;;;27.40;25.60;;;;;;;;;;5080239;28;20509;-84
2023/03/18 04:03:59;;;;;;;29.20;27.20;;;;;;;;;;5079169;28;20523;-84
2023/03/18 04:06:26;;;;;;;26.87;25.20;;;;;;;;;;5078653;28;20435;-85
2023/03/18 04:08:53;;;;;;;28.20;26.20;;;;;;;;;;5078257;28;20527;-83
2023/03/18 04:11:21;;;;;;;29.83;27.50;;;;;;;;;;5078868;28;20462;-83
2023/03/18 04:13:49;;;;;;;28.60;26.67;;;;;;;;;;5078493;28;20476;-83
2023/03/18 04:16:17;;;;;;;28.90;27.10;;;;;;;;;;5077686;28;20425;-83
2023/03/18 04:18:44;;;;;;;29.07;27.07;;;;;;;;;;5077475;28;20810;-83
2023/03/18 04:21:11;;;;;;;27.63;25.73;;;;;;;;;;5077618;28;20515;-83
2023/03/18 04:23:38;;;;;;;28.03;26.03;;;;;;;;;;5077455;28;20441;-83
2023/03/18 04:26:05;;;;;;;29.10;27.30;;;;;;;;;;5078037;28;20446;-82
2023/03/18 04:28:34;;;;;;;27.60;25.70;;;;;;;;;;5078493;28;20462;-84
2023/03/18 04:31:01;;;;;;;26.97;24.83;;;;;;;;;;5077291;28;20441;-84
2023/03/18 04:33:28;;;;;;;28.53;26.67;;;;;;;;;;5076677;28;20927;-84
2023/03/18 04:35:55;;;;;;;28.90;26.80;;;;;;;;;;5076751;28;20492;-85
2023/03/18 04:38:22;;;;;;;26.63;24.83;;;;;;;;;;5077093;28;20513;-84
2023/03/18 04:40:49;;;;;;;28.83;26.87;;;;;;;;;;5077228;28;20462;-84
2023/03/18 04:43:16;;;;;;;26.83;25.00;;;;;;;;;;5077995;28;20490;-84
2023/03/18 04:45:44;;;;;;;27.13;25.37;;;;;;;;;;5077283;28;20422;-85
2023/03/18 04:48:11;;;;;;;29.37;27.07;;;;;;;;;;5077486;28;20490;-85
2023/03/18 04:50:39;;;;;;;27.97;25.97;;;;;;;;;;5076848;28;20700;-85
2023/03/18 04:53:06;;;;;;;28.43;26.43;;;;;;;;;;5077807;28;20434;-83
2023/03/18 04:55:34;;;;;;;28.30;26.27;;;;;;;;;;5077256;28;20431;-83
2023/03/18 04:58:00;;;;;;;29.43;27.43;;;;;;;;;;5077683;28;20564;-83
2023/03/18 05:00:28;;;;;;;26.53;24.73;;;;;;;;;;5076868;28;20928;-83
2023/03/18 05:02:56;;;;;;;28.10;26.03;;;;;;;;;;5077129;28;20535;-82
2023/03/18 05:05:23;;;;;;;25.63;24.03;;;;;;;;;;5077727;28;20420;-83
2023/03/18 05:07:51;;;;;;;26.27;24.70;;;;;;;;;;5076661;28;20970;-83
2023/03/18 05:10:18;;;;;;;27.63;25.97;;;;;;;;;;5077147;28;20478;-83
2023/03/18 05:12:45;;;;;;;26.37;24.50;;;;;;;;;;5077371;28;20446;-83
2023/03/18 05:15:13;;;;;;;27.03;25.23;;;;;;;;;;5077531;28;20448;-83
2023/03/18 05:17:40;;;;;;;27.27;25.47;;;;;;;;;;5075360;28;20915;-84
2023/03/18 05:20:09;;;;;;;26.00;24.30;;;;;;;;;;5075994;28;20424;-84
2023/03/18 05:22:36;;;;;;;25.57;23.97;;;;;;;;;;5076121;28;20477;-83
2023/03/18 05:25:03;;;;;;;25.70;24.00;;;;;;;;;;5076992;28;20528;-83
2023/03/18 05:27:31;;;;;;;27.73;25.93;;;;;;;;;;5077365;28;20469;-83
2023/03/18 05:29:58;;;;;;;27.43;25.43;;;;;;;;;;5077037;28;20424;-83
2023/03/18 05:32:25;;;;;;;27.67;25.63;;;;;;;;;;5077054;28;20444;-83
2023/03/18 05:34:52;;;;;;;27.07;25.17;;;;;;;;;;5077640;28;20428;-83
2023/03/18 05:37:20;;;;;;;26.93;25.03;;;;;;;;;;5077057;28;20449;-83
2023/03/18 05:39:48;;;;;;;28.03;26.20;;;;;;;;;;5077589;28;20462;-83
2023/03/18 05:42:15;;;;;;;27.60;25.73;;;;;;;;;;5077231;28;20490;-83
2023/03/18 05:44:43;;;;;;;26.30;24.30;;;;;;;;;;5077867;28;20450;-81
2023/03/18 05:47:10;;;;;;;28.13;26.23;;;;;;;;;;5083072;28;20455;-81
2023/03/18 05:49:37;;;;;;;28.90;26.60;;;;;;;;;;5088854;28;20432;-80
2023/03/18 05:52:04;;;;;;;27.17;25.13;;;;;;;;;;5090240;28;20461;-80
2023/03/18 05:54:33;;;;;;;29.50;27.60;;;;;;;;;;5083398;28;20450;-80
2023/03/18 05:57:00;;;;;;;28.33;25.60;;;;;;;;;;5074996;28;20494;-81
2023/03/18 05:59:29;;;;;;;28.97;26.63;;;;;;;;;;5075948;28;20881;-81
2023/03/18 06:01:56;;;;;;;28.40;26.60;;;;;;;;;;5075895;28;20452;-81
2023/03/18 06:04:23;;;;;;;29.60;27.50;;;;;;;;;;5075990;28;20445;-81
2023/03/18 06:06:50;;;;;;;28.23;26.07;;;;;;;;;;5074944;28;20900;-81
2023/03/18 06:09:17;;;;;;;27.00;25.10;;;;;;;;;;5074969;28;20461;-83
2023/03/18 06:11:46;;;;;;;28.37;26.20;;;;;;;;;;5075254;28;20518;-83
2023/03/18 06:14:13;;;;;;;26.33;24.47;;;;;;;;;;5075638;28;20442;-81
2023/03/18 06:16:40;;;;;;;25.60;23.77;;;;;;;;;;5075202;28;20424;-81
2023/03/18 06:19:09;;;;;;;29.03;26.17;;;;;;;;;;5074897;28;20460;-81
2023/03/18 06:21:36;;;;;;;26.20;24.40;;;;;;;;;;5075222;28;20543;-81
2023/03/18 06:24:03;;;;;;;28.13;26.23;;;;;;;;;;5075531;28;20953;-81
2023/03/18 06:26:30;;;;;;;26.03;24.37;;;;;;;;;;5074969;28;20490;-81
2023/03/18 06:28:58;;;;;;;28.00;26.00;;;;;;;;;;5075856;28;20566;-81
2023/03/18 06:31:26;;;;;;;28.07;26.17;;;;;;;;;;5075107;28;20482;-81
2023/03/18 06:33:53;;;;;;;27.83;26.07;;;;;;;;;;5075696;28;20850;-81
2023/03/18 06:36:21;;;;;;;27.93;26.20;;;;;;;;;;5074937;28;20515;-81
2023/03/18 06:38:48;;;;;;;27.77;25.83;;;;;;;;;;5075068;28;20880;-81
2023/03/18 06:41:15;;;;;;;27.17;25.53;;;;;;;;;;5074875;28;20466;-81
2023/03/18 06:43:42;;;;;;;27.60;25.50;;;;;;;;;;5074715;28;20507;-81
2023/03/18 06:46:13;;;;;;;26.73;25.07;;;;;;;;;;5075720;28;20474;-81
2023/03/18 06:48:40;;;;;;;28.60;26.37;;;;;;;;;;5078783;28;20448;-81
2023/03/18 06:51:08;;;;;;;28.90;26.90;;;;;;;;;;5079450;28;20424;-81
2023/03/18 06:53:35;;;;;;;27.40;25.70;;;;;;;;;;5079075;28;21030;-82
2023/03/18 06:56:02;;;;;;;25.30;23.90;;;;;;;;;;5077799;28;20986;-81
2023/03/18 06:58:29;;;;;;;26.30;24.37;;;;;;;;;;5078785;28;20466;-81
2023/03/18 07:00:56;;;;;;;25.10;23.50;;;;;;;;;;5078874;28;20495;-81
2023/03/18 07:03:25;;;;;;;24.27;22.83;;;;;;;;;;5078595;28;20482;-81
2023/03/18 07:05:52;;;;;;;24.67;22.80;;;;;;;;;;5077953;28;20435;-82
2023/03/18 07:08:19;;;;;;;26.23;24.33;;;;;;;;;;5078189;28;20469;-81
2023/03/18 07:10:46;;;;;;;25.40;23.80;;;;;;;;;;5079458;28;20457;-81
2023/03/18 07:13:14;;;;;;;25.07;23.23;;;;;;;;;;5078573;28;20425;-81
2023/03/18 07:15:41;;;;;;;24.13;22.60;;;;;;;;;;5078147;28;20445;-81
2023/03/18 07:18:09;;;;;;;24.30;22.90;;;;;;;;;;5079400;28;20540;-81
2023/03/18 07:20:37;;;;;;;26.20;24.47;;;;;;;;;;5078605;28;20492;-81
2023/03/18 07:23:05;;;;;;;25.57;23.97;;;;;;;;;;5078116;28;20951;-81
2023/03/18 07:25:32;;;;;;;26.00;24.17;;;;;;;;;;5078014;28;20416;-80
2023/03/18 07:28:00;;;;;;;26.47;24.90;;;;;;;;;;5089781;28;20521;-81
2023/03/18 07:30:27;;;;;;;25.10;23.37;;;;;;;;;;5097657;28;20518;-81
2023/03/18 07:32:54;;;;;;;24.57;23.00;;;;;;;;;;5097454;28;20456;-81
2023/03/18 07:35:21;;;;;;;25.00;23.40;;;;;;;;;;5080045;28;20445;-83
2023/03/18 07:37:50;;;;;;;25.57;24.03;;;;;;;;;;5078552;28;20469;-81
2023/03/18 07:40:17;;;;;;;25.07;23.67;;;;;;;;;;5079507;28;20438;-81
2023/03/18 07:42:44;;;;;;;23.23;22.03;;;;;;;;;;5078849;28;20485;-82
2023/03/18 07:45:11;;;;;;;23.93;22.43;;;;;;;;;;5078863;28;20474;-82
2023/03/18 07:47:38;;;;;;;23.57;22.17;;;;;;;;;;5078681;28;20428;-82
2023/03/18 07:50:06;;;;;;;22.50;21.33;;;;;;;;;;5078602;28;20436;-81
2023/03/18 07:52:33;;;;;;;23.90;22.57;;;;;;;;;;5078816;28;20438;-81
2023/03/18 07:55:01;;;;;;;23.37;21.80;;;;;;;;;;5089304;28;20949;-81
2023/03/18 07:57:28;;;;;;;21.70;20.50;;;;;;;;;;5078154;28;20474;-81
2023/03/18 07:59:56;;;;;;;21.90;20.60;;;;;;;;;;5078580;28;20428;-81
2023/03/18 08:02:24;;;;;;;21.60;20.50;;;;;;;;;;5078633;28;20465;-81
2023/03/18 08:04:51;;;;;;;21.53;20.33;;;;;;;;;;5078693;28;20460;-82
2023/03/18 08:07:18;;;;;;;23.50;22.10;;;;;;;;;;5079208;28;20496;-81
2023/03/18 08:09:45;;;;;;;22.67;21.27;;;;;;;;;;5079834;28;20849;-81
2023/03/18 08:12:15;;;;;;;22.93;21.53;;;;;;;;;;5079586;28;20480;-82
2023/03/18 08:14:42;;;;;;;22.10;20.83;;;;;;;;;;5078501;28;20468;-81
2023/03/18 08:17:09;;;;;;;21.10;19.80;;;;;;;;;;5079034;28;20416;-81
2023/03/18 08:19:36;;;;;;;21.70;20.40;;;;;;;;;;5084080;28;20437;-82
2023/03/18 08:22:04;;;;;;;22.97;21.53;;;;;;;;;;5080552;28;20460;-81
2023/03/18 08:24:31;;;;;;;23.50;21.80;;;;;;;;;;5078777;28;20797;-81
2023/03/18 08:26:58;;;;;;;22.23;20.70;;;;;;;;;;5078419;28;20945;-81
2023/03/18 08:29:26;;;;;;;22.57;21.07;;;;;;;;;;5078493;28;20478;-81
2023/03/18 08:31:54;;;;;;;23.23;21.83;;;;;;;;;;5077490;28;20442;-81
2023/03/18 08:34:20;;;;;;;22.43;21.03;;;;;;;;;;5079380;28;20511;-82
2023/03/18 08:36:48;;;;;;;21.60;20.30;;;;;;;;;;5080705;28;20503;-82
2023/03/18 08:39:15;;;;;;;22.40;21.10;;;;;;;;;;5080870;28;20806;-82
2023/03/18 08:41:42;;;;;;;22.57;21.37;;;;;;;;;;5081215;28;20409;-81
2023/03/18 08:44:10;;;;;;;26.57;24.93;;;;;;;;;;5081471;28;20471;-81
2023/03/18 08:46:38;;;;;;;20.83;19.73;;;;;;;;;;5079429;28;20778;-81
2023/03/18 08:49:06;;;;;;;24.20;22.80;;;;;;;;;;5080946;28;20462;-82
2023/03/18 08:51:33;;;;;;;23.27;22.00;;;;;;;;;;5080032;28;20504;-81
2023/03/18 08:54:00;;;;;;;27.63;25.37;;;;;;;;;;5080084;28;20563;-81
2023/03/18 08:56:27;;;;;;;23.50;21.90;;;;;;;;;;5079617;28;20920;-81
2023/03/18 08:58:54;;;;;;;21.70;20.40;;;;;;;;;;5079192;28;20478;-81
2023/03/18 09:01:21;;;;;;;20.13;19.17;;;;;;;;;;5079655;28;20449;-81
2023/03/18 09:03:50;;;;;;;23.40;21.77;;;;;;;;;;5078292;28;20481;-81
2023/03/18 09:06:17;;;;;;;23.53;22.07;;;;;;;;;;5077590;28;20542;-81
2023/03/18 09:08:44;;;;;;;21.07;19.83;;;;;;;;;;5077160;28;20481;-81
2023/03/18 09:11:12;;;;;;;22.50;20.90;;;;;;;;;;5077052;28;20416;-81
2023/03/18 09:13:39;;;;;;;22.67;21.27;;;;;;;;;;5077068;28;20520;-81
2023/03/18 09:16:07;;;;;;;21.83;20.47;;;;;;;;;;5077038;28;20496;-81
2023/03/18 09:18:34;;;;;;;24.37;22.57;;;;;;;;;;5077778;28;20462;-81
2023/03/18 09:21:03;;;;;;;22.40;20.67;;;;;;;;;;5076856;28;20424;-81
2023/03/18 09:23:31;;;;;;;22.80;21.30;;;;;;;;;;5077309;28;20478;-81
2023/03/18 09:25:58;;;;;;;22.03;20.70;;;;;;;;;;5077562;28;20754;-81
2023/03/18 09:28:26;;;;;;;21.70;20.30;;;;;;;;;;5076514;28;20816;-81
2023/03/18 09:30:54;;;;;;;22.60;21.17;;;;;;;;;;5076752;28;20426;-81
2023/03/18 09:33:21;;;;;;;23.33;21.83;;;;;;;;;;5076802;28;20466;-81
2023/03/18 09:35:49;;;;;;;22.90;21.37;;;;;;;;;;5075651;28;20475;-81
2023/03/18 09:38:19;;;;;;;22.80;21.30;;;;;;;;;;5076096;28;20466;-81
2023/03/18 09:40:51;;;;;;;24.03;22.50;;;;;;;;;;5076446;28;20796;-80
2023/03/18 09:43:25;;;;;;;22.83;21.30;;;;;;;;;;5076181;28;20486;-81
2023/03/18 09:45:58;;;;;;;23.40;21.90;;;;;;;;;;5076192;28;20445;-81
2023/03/18 09:48:46;;;;;;;22.80;21.20;;;;;;;;;;5075849;28;20796;-81
2023/03/18 09:51:19;;;;;;;22.17;20.47;;;;;;;;;;5071324;28;20764;-81
2023/03/18 09:53:51;;;;;;;22.30;20.90;;;;;;;;;;5075934;28;20397;-81
2023/03/18 09:56:19;;;;;;;23.87;22.13;;;;;;;;;;5075483;28;20479;-81
2023/03/18 09:58:48;;;;;;;22.47;21.07;;;;;;;;;;5075898;28;20465;-81
2023/03/18 10:01:16;;;;;;;21.40;20.20;;;;;;;;;;5076769;28;20462;-81
2023/03/18 10:03:45;;;;;;;23.63;22.13;;;;;;;;;;5076293;28;20485;-81
2023/03/18 10:06:16;;;;;;;23.60;21.97;;;;;;;;;;5075405;28;20434;-80
2023/03/18 10:08:46;;;;;;;22.73;21.40;;;;;;;;;;5075513;28;20444;-79
2023/03/18 10:11:19;;;;;;;22.83;21.40;;;;;;;;;;5075693;28;20416;-85
2023/03/18 10:13:52;;;;;;;24.13;22.50;;;;;;;;;;5077549;28;20410;-89
2023/03/18 10:16:22;;;;;;;22.93;21.53;;;;;;;;;;5077789;28;20438;-83
2023/03/18 10:18:49;;;;;;;24.03;22.43;;;;;;;;;;5077082;28;20507;-81
2023/03/18 10:21:21;;;;;;;22.63;21.33;;;;;;;;;;5078542;28;20466;-81
2023/03/18 10:23:51;;;;;;;22.73;21.23;;;;;;;;;;5083294;28;20437;-88
2023/03/18 10:26:22;;;;;;;23.37;21.70;;;;;;;;;;5084580;28;20499;-81
2023/03/18 10:29:03;;;;;;;22.37;21.07;;;;;;;;;;5083936;28;21060;-82
2023/03/18 10:31:36;;;;;;;21.53;20.23;;;;;;;;;;5082081;28;20423;-82
2023/03/18 10:34:08;;;;;;;22.43;21.03;;;;;;;;;;5082777;28;20477;-81
2023/03/18 10:36:39;;;;;;;21.70;20.40;;;;;;;;;;5089519;28;20424;-80
2023/03/18 10:39:11;;;;;;;21.87;20.57;;;;;;;;;;5098565;28;20508;-81
2023/03/18 10:41:42;;;;;;;22.90;21.50;;;;;;;;;;5098179;28;20461;-80
2023/03/18 10:44:16;;;;;;;22.57;21.27;;;;;;;;;;5085377;28;20501;-81
2023/03/18 10:46:45;;;;;;;22.93;21.73;;;;;;;;;;5080557;28;20405;-81
2023/03/18 10:49:15;;;;;;;22.00;20.80;;;;;;;;;;5078977;28;20493;-81
2023/03/18 10:51:46;;;;;;;21.27;20.03;;;;;;;;;;5080155;28;20468;-87
2023/03/18 10:54:16;;;;;;;22.23;20.90;;;;;;;;;;5082446;28;20527;-81
2023/03/18 10:56:45;;;;;;;22.00;20.70;;;;;;;;;;5082132;28;20466;-81
2023/03/18 10:59:14;;;;;;;20.93;19.87;;;;;;;;;;5084812;28;20511;-81
2023/03/18 11:01:42;;;;;;;23.50;22.07;;;;;;;;;;5087985;28;20452;-81
2023/03/18 11:04:13;;;;;;;21.50;20.13;;;;;;;;;;5087269;28;20889;-82
2023/03/18 11:06:42;;;;;;;22.50;21.23;;;;;;;;;;5085761;28;20435;-83
2023/03/18 11:09:09;;;;;;;23.37;22.10;;;;;;;;;;5085311;28;20501;-83
2023/03/18 11:11:39;;;;;;;20.73;19.50;;;;;;;;;;5085614;28;20435;-82
2023/03/18 11:14:14;;;;;;;21.73;20.53;;;;;;;;;;5085408;28;20434;-82
2023/03/18 11:16:42;;;;;;;21.93;20.53;;;;;;;;;;5085483;28;20412;-81
2023/03/18 11:19:22;;;;;;;21.03;19.80;;;;;;;;;;5086159;28;20436;-83
2023/03/18 11:21:50;;;;;;;21.70;20.50;;;;;;;;;;5085789;28;20430;-82
2023/03/18 11:24:34;;;;;;;19.43;18.53;;;;;;;;;;5086281;28;20489;-82
2023/03/18 11:27:02;;;;;;;21.10;20.00;;;;;;;;;;5085510;28;20453;-82
2023/03/18 11:29:33;;;;;;;20.37;19.27;;;;;;;;;;5085367;28;20467;-82
2023/03/18 11:32:00;;;;;;;20.70;19.50;;;;;;;;;;5085854;28;20434;-82
2023/03/18 11:34:28;;;;;;;19.83;18.83;;;;;;;;;;5085514;28;20416;-83
2023/03/18 11:36:57;;;;;;;21.70;20.40;;;;;;;;;;5084124;28;20453;-82
2023/03/18 11:39:26;;;;;;;21.20;20.00;;;;;;;;;;5085823;28;20527;-83
2023/03/18 11:41:53;;;;;;;21.17;19.87;;;;;;;;;;5084911;28;20428;-82
2023/03/18 11:44:25;;;;;;;21.63;20.40;;;;;;;;;;5085353;28;20464;-82
2023/03/18 11:46:55;;;;;;;21.60;20.27;;;;;;;;;;5086320;28;20437;-81
2023/03/18 11:49:23;;;;;;;20.77;19.67;;;;;;;;;;5089681;28;20529;-82
2023/03/18 11:51:54;;;;;;;20.90;19.70;;;;;;;;;;5085686;28;20420;-83
2023/03/18 11:54:33;;;;;;;21.60;20.10;;;;;;;;;;5085375;28;20420;-82
2023/03/18 11:57:03;;;;;;;22.40;21.00;;;;;;;;;;5084482;28;20556;-85
2023/03/18 11:59:35;;;;;;;21.77;20.57;;;;;;;;;;5083296;28;20512;-80
2023/03/18 12:02:11;;;;;;;22.10;21.00;;;;;;;;;;5082819;28;20450;-80
2023/03/18 12:04:51;;;;;;;21.57;20.27;;;;;;;;;;5085473;28;20486;-85
2023/03/18 12:07:25;;;;;;;21.83;20.53;;;;;;;;;;5058994;28;20437;-91
2023/03/18 12:09:55;;;;;;;22.07;20.77;;;;;;;;;;5049047;28;20443;-90
2023/03/18 12:12:29;;;;;;;22.67;20.70;;;;;;;;;;5047261;28;20452;-93
2023/03/18 12:15:02;;;;;;;21.83;20.43;;;;;;;;;;5043921;28;20466;-93
2023/03/18 12:17:36;;;;;;;21.97;20.77;;;;;;;;;;5040029;28;20416;-85
2023/03/18 12:20:22;;;;;;;21.90;20.50;;;;;;;;;;5037551;28;20443;-88
2023/03/18 12:23:07;;;;;;;22.03;20.70;;;;;;;;;;5038771;28;20462;-88
2023/03/18 12:25:39;;;;;;;22.33;21.13;;;;;;;;;;5038434;28;20841;-83
2023/03/18 12:28:14;;;;;;;21.17;20.07;;;;;;;;;;5039312;28;20810;-85
2023/03/18 12:30:56;;;;;;;22.47;21.27;;;;;;;;;;5038726;28;20445;-84
2023/03/18 12:33:33;;;;;;;22.03;20.73;;;;;;;;;;5038754;28;20759;-84
2023/03/18 12:36:04;;;;;;;21.60;20.33;;;;;;;;;;5039620;28;20432;-85
2023/03/18 12:38:59;;;;;;;21.67;20.37;;;;;;;;;;5078153;28;20944;-88
2023/03/18 12:41:30;;;;;;;21.90;20.70;;;;;;;;;;5053874;28;20434;-88
2023/03/18 12:44:05;;;;;;;22.23;21.03;;;;;;;;;;5074003;28;20470;-88
2023/03/18 12:46:33;;;;;;;21.40;20.17;;;;;;;;;;5058167;28;20523;-84
2023/03/18 12:49:05;;;;;;;22.53;21.13;;;;;;;;;;5058646;28;20520;-92
2023/03/18 12:51:36;;;;;;;21.90;20.63;;;;;;;;;;5056319;28;20454;-89
2023/03/18 12:54:09;;;;;;;20.90;19.70;;;;;;;;;;5059076;28;20546;-93
2023/03/18 12:56:40;;;;;;;22.13;20.73;;;;;;;;;;5057881;28;20442;-88
2023/03/18 12:59:09;;;;;;;22.90;21.60;;;;;;;;;;5062388;28;20450;-86
2023/03/18 13:01:39;;;;;;;22.17;20.97;;;;;;;;;;5061339;28;20484;-87
2023/03/18 13:04:09;;;;;;;22.63;21.23;;;;;;;;;;5060062;28;20495;-82
2023/03/18 13:06:39;;;;;;;22.13;20.90;;;;;;;;;;5038517;28;20436;-87
2023/03/18 13:09:14;;;;;;;23.00;21.60;;;;;;;;;;5040385;28;20525;-87
2023/03/18 13:11:49;;;;;;;21.30;20.10;;;;;;;;;;5045973;28;20447;-89
2023/03/18 13:14:20;;;;;;;22.00;20.80;;;;;;;;;;5038841;28;20431;-83
2023/03/18 13:16:48;;;;;;;22.67;21.37;;;;;;;;;;5036889;28;20851;-80
2023/03/18 13:19:17;;;;;;;22.13;20.73;;;;;;;;;;5037621;28;20471;-79
2023/03/18 13:21:46;;;;;;;22.00;20.80;;;;;;;;;;5038835;28;20434;-81
2023/03/18 13:24:18;;;;;;;22.33;21.03;;;;;;;;;;5038142;28;20506;-81
2023/03/18 13:26:55;;;;;;;23.03;21.70;;;;;;;;;;5037224;28;20442;-81
2023/03/18 13:29:28;;;;;;;23.23;21.93;;;;;;;;;;5037910;28;20446;-81
2023/03/18 13:32:00;;;;;;;22.83;21.63;;;;;;;;;;5037733;28;20914;-81
2023/03/18 13:34:53;;;;;;;22.10;20.80;;;;;;;;;;5037879;28;20418;-80
2023/03/18 13:37:37;;;;;;;22.73;21.33;;;;;;;;;;5022138;28;20984;-80
2023/03/18 13:40:16;;;;;;;21.60;20.40;;;;;;;;;;5037077;28;20445;-80
2023/03/18 13:42:44;;;;;;;22.30;21.10;;;;;;;;;;5037888;28;20434;-81
2023/03/18 13:45:15;;;;;;;22.00;20.60;;;;;;;;;;5036655;28;20490;-80
2023/03/18 13:47:43;;;;;;;22.27;21.07;;;;;;;;;;5036531;28;20849;-81
2023/03/18 13:50:27;;;;;;;21.47;20.30;;;;;;;;;;5036894;28;20439;-81
2023/03/18 13:52:56;;;;;;;22.43;21.23;;;;;;;;;;5036615;28;20480;-80
2023/03/18 13:55:27;;;;;;;22.40;21.20;;;;;;;;;;5037103;28;20783;-81
2023/03/18 13:57:56;;;;;;;22.43;21.23;;;;;;;;;;5036446;28;20480;-81
2023/03/18 14:00:34;;;;;;;20.50;19.40;;;;;;;;;;5072304;28;20541;-81
2023/03/18 14:03:20;;;;;;;21.70;20.60;;;;;;;;;;5076699;28;20438;-81
2023/03/18 14:05:48;;;;;;;20.73;19.73;;;;;;;;;;5076302;28;20933;-81
2023/03/18 14:08:46;;;;;;;21.70;20.60;;;;;;;;;;5077288;28;20448;-81
2023/03/18 14:11:31;;;;;;;20.30;19.30;;;;;;;;;;5077838;28;20445;-81
2023/03/18 14:14:00;;;;;;;21.33;20.23;;;;;;;;;;5077668;28;20441;-81
2023/03/18 14:16:28;;;;;;;21.57;20.47;;;;;;;;;;5077585;28;20445;-81
2023/03/18 14:18:57;;;;;;;22.10;20.90;;;;;;;;;;5077613;28;20972;-81
2023/03/18 14:21:25;;;;;;;23.63;22.23;;;;;;;;;;5075769;28;20451;-81
2023/03/18 14:24:03;;;;;;;22.13;21.03;;;;;;;;;;5075611;28;20524;-81
2023/03/18 14:26:31;;;;;;;22.00;20.90;;;;;;;;;;5075131;28;20513;-81
2023/03/18 14:29:15;;;;;;;22.13;20.80;;;;;;;;;;5075926;28;20493;-81